createdAt,value
2019-05-23T00:02:55.350Z,92.00
2019-05-23T00:05:48.410Z,92.10
2019-05-23T00:08:35.806Z,92.20
2019-05-23T00:11:25.169Z,92.30
2019-05-23T00:14:06.648Z,92.20
2019-05-23T00:16:35.973Z,92.30
2019-05-23T00:19:04.780Z,92.60
2019-05-23T00:21:33.969Z,92.60
2019-05-23T00:24:03.436Z,92.80
2019-05-23T00:26:34.029Z,93.00
2019-05-23T00:29:09.894Z,93.30
2019-05-23T00:31:38.480Z,93.50
2019-05-23T00:34:08.990Z,93.60
2019-05-23T00:36:37.379Z,93.40
2019-05-23T00:39:08.522Z,93.90
2019-05-23T00:41:38.968Z,94.00
2019-05-23T00:44:07.338Z,94.10
2019-05-23T00:46:36.711Z,94.30
2019-05-23T00:49:06.616Z,94.50
2019-05-23T00:51:36.201Z,94.50
2019-05-23T00:54:04.387Z,94.70
2019-05-23T00:56:33.755Z,94.60
2019-05-23T00:59:01.672Z,94.70
2019-05-23T01:01:31.751Z,94.90
2019-05-23T01:04:00.542Z,94.90
2019-05-23T01:06:30.492Z,94.90
2019-05-23T01:08:59.511Z,94.80
2019-05-23T01:11:27.660Z,94.90
2019-05-23T01:13:57.375Z,95.30
2019-05-23T01:16:28.199Z,95.20
2019-05-23T01:18:56.620Z,95.30
2019-05-23T01:21:52.504Z,95.50
2019-05-23T01:24:25.169Z,95.60
2019-05-23T01:26:54.157Z,95.70
2019-05-23T01:29:23.928Z,96.10
2019-05-23T01:31:55.289Z,96.10
2019-05-23T01:34:25.676Z,96.10
2019-05-23T01:36:53.818Z,96.10
2019-05-23T01:39:23.134Z,96.30
2019-05-23T01:41:51.591Z,96.00
2019-05-23T01:44:20.624Z,96.20
2019-05-23T01:46:49.684Z,96.10
2019-05-23T01:49:17.973Z,96.10
2019-05-23T01:51:46.147Z,96.00
2019-05-23T01:54:15.073Z,96.00
2019-05-23T01:56:43.704Z,96.00
2019-05-23T01:59:12.551Z,95.90
2019-05-23T02:01:40.785Z,95.90
2019-05-23T02:04:09.272Z,95.90
2019-05-23T02:06:37.658Z,96.10
2019-05-23T02:09:08.665Z,96.10
2019-05-23T02:11:37.055Z,95.90
2019-05-23T02:14:06.511Z,96.20
2019-05-23T02:16:34.874Z,96.30
2019-05-23T02:19:03.273Z,96.40
2019-05-23T02:21:31.712Z,96.70
2019-05-23T02:24:00.175Z,97.00
2019-05-23T02:26:28.223Z,96.90
2019-05-23T02:28:56.194Z,96.80
2019-05-23T02:31:24.901Z,96.70
2019-05-23T02:33:53.461Z,96.80
2019-05-23T02:36:22.296Z,96.90
2019-05-23T02:39:16.209Z,96.70
2019-05-23T02:41:53.928Z,96.70
2019-05-23T02:44:23.849Z,96.60
2019-05-23T02:47:04.215Z,96.80
2019-05-23T02:49:33.492Z,96.90
2019-05-23T02:52:27.259Z,96.90
2019-05-23T02:54:55.534Z,97.10
2019-05-23T02:57:26.955Z,96.80
2019-05-23T03:00:10.233Z,96.90
2019-05-23T03:02:54.083Z,97.00
2019-05-23T03:05:25.410Z,97.10
2019-05-23T03:07:55.971Z,96.80
2019-05-23T03:10:26.774Z,96.80
2019-05-23T03:12:56.311Z,96.70
2019-05-23T03:15:28.596Z,96.80
2019-05-23T03:18:01.961Z,96.90
2019-05-23T03:20:32.826Z,97.10
2019-05-23T03:23:09.136Z,97.30
2019-05-23T03:26:37.020Z,97.30
2019-05-23T03:29:08.091Z,97.30
2019-05-23T03:31:47.498Z,97.60
2019-05-23T03:34:22.942Z,97.80
2019-05-23T03:36:52.463Z,97.80
2019-05-23T03:39:20.319Z,97.80
2019-05-23T03:41:48.145Z,97.50
2019-05-23T03:44:16.643Z,97.20
2019-05-23T03:46:48.422Z,97.30
2019-05-23T03:49:17.103Z,97.10
2019-05-23T03:51:45.550Z,96.80
2019-05-23T03:54:14.489Z,96.90
2019-05-23T03:56:42.383Z,97.10
2019-05-23T03:59:12.017Z,96.90
2019-05-23T04:01:48.250Z,96.70
2019-05-23T04:04:13.231Z,96.80
2019-05-23T04:06:42.214Z,96.60
2019-05-23T04:09:11.167Z,96.40
2019-05-23T04:11:39.493Z,96.20
2019-05-23T04:14:09.515Z,96.00
2019-05-23T04:16:37.974Z,96.00
2019-05-23T04:19:06.096Z,95.90
2019-05-23T04:21:34.165Z,96.00
2019-05-23T04:24:02.216Z,96.00
2019-05-23T04:26:30.206Z,96.00
2019-05-23T04:28:58.252Z,96.00
2019-05-23T04:31:26.695Z,95.70
2019-05-23T04:33:54.569Z,95.80
2019-05-23T04:36:22.676Z,95.70
2019-05-23T04:38:50.567Z,95.40
2019-05-23T04:41:18.468Z,95.30
2019-05-23T04:43:46.317Z,95.20
2019-05-23T04:46:14.588Z,94.70
2019-05-23T04:48:42.922Z,94.70
2019-05-23T04:51:11.194Z,94.50
2019-05-23T04:53:40.498Z,94.50
2019-05-23T04:56:09.621Z,94.40
2019-05-23T04:58:37.964Z,94.40
2019-05-23T05:01:06.527Z,94.10
2019-05-23T05:03:35.463Z,94.00
2019-05-23T05:06:04.889Z,94.20
2019-05-23T05:08:32.743Z,94.10
2019-05-23T05:11:02.243Z,93.10
2019-05-23T05:13:30.993Z,93.10
2019-05-23T05:15:59.301Z,93.60
2019-05-23T05:18:28.424Z,93.50
2019-05-23T05:20:56.324Z,92.80
2019-05-23T05:23:24.468Z,92.50
2019-05-23T05:25:52.574Z,91.80
2019-05-23T05:28:20.476Z,91.80
2019-05-23T05:30:48.504Z,91.60
2019-05-23T05:33:17.368Z,91.20
2019-05-23T05:35:45.717Z,90.70
2019-05-23T05:38:13.598Z,90.30
2019-05-23T05:40:41.757Z,90.30
2019-05-23T05:43:09.977Z,89.00
2019-05-23T05:45:37.990Z,88.20
2019-05-23T05:48:06.151Z,87.20
2019-05-23T05:50:34.007Z,87.60
2019-05-23T05:53:02.826Z,86.10
2019-05-23T05:55:30.725Z,87.10
2019-05-23T05:57:58.593Z,86.50
2019-05-23T06:00:50.072Z,84.70
2019-05-23T06:03:18.046Z,81.80
2019-05-23T06:06:08.357Z,83.70
2019-05-23T06:08:38.586Z,83.00
2019-05-23T06:11:07.411Z,82.40
2019-05-23T06:13:35.533Z,83.00
2019-05-23T06:16:04.565Z,84.20
2019-05-23T06:18:32.629Z,83.20
2019-05-23T06:21:01.906Z,82.20
2019-05-23T06:23:30.280Z,81.70
2019-05-23T06:26:02.544Z,81.30
2019-05-23T06:28:30.999Z,81.00
2019-05-23T06:30:59.800Z,81.50
2019-05-23T06:33:27.702Z,79.50
2019-05-23T06:35:55.772Z,78.50
2019-05-23T06:38:25.136Z,76.90
2019-05-23T06:40:53.836Z,76.50
2019-05-23T06:43:22.787Z,74.40
2019-05-23T06:45:50.815Z,73.20
2019-05-23T06:48:20.507Z,74.60
2019-05-23T06:50:48.684Z,73.50
2019-05-23T06:53:16.560Z,72.40
2019-05-23T06:55:44.462Z,72.40
2019-05-23T06:58:12.693Z,69.80
2019-05-23T07:00:44.648Z,69.30
2019-05-23T07:03:13.406Z,69.40
2019-05-23T07:05:41.541Z,69.80
2019-05-23T07:08:09.598Z,69.90
2019-05-23T07:10:40.457Z,68.20
2019-05-23T07:13:08.430Z,64.50
2019-05-23T07:15:37.402Z,64.80
2019-05-23T07:18:06.298Z,64.00
2019-05-23T07:20:34.289Z,63.70
2019-05-23T07:23:02.422Z,60.00
2019-05-23T07:25:30.485Z,60.10
2019-05-23T07:27:59.254Z,60.60
2019-05-23T07:30:27.326Z,59.10
2019-05-23T07:32:55.592Z,58.90
2019-05-23T07:35:23.766Z,59.50
2019-05-23T07:37:52.195Z,58.90
2019-05-23T07:40:21.041Z,57.00
2019-05-23T07:42:49.145Z,57.00
2019-05-23T07:45:23.464Z,58.10
2019-05-23T07:47:51.477Z,57.70
2019-05-23T07:50:19.474Z,56.20
2019-05-23T07:52:47.559Z,57.00
2019-05-23T07:55:27.514Z,56.70
2019-05-23T07:57:55.539Z,56.00
2019-05-23T08:00:28.787Z,53.30
2019-05-23T08:03:00.062Z,52.40
2019-05-23T08:05:28.745Z,52.60
2019-05-23T08:07:57.065Z,50.00
2019-05-23T08:10:33.882Z,49.80
2019-05-23T08:12:56.685Z,50.20
2019-05-23T08:15:24.570Z,49.40
2019-05-23T08:17:52.449Z,49.10
2019-05-23T08:20:20.730Z,49.40
2019-05-23T08:22:48.658Z,48.60
2019-05-23T08:25:17.010Z,49.70
2019-05-23T08:27:45.207Z,50.40
2019-05-23T08:30:14.821Z,48.60
2019-05-23T08:32:43.311Z,49.90
2019-05-23T08:35:16.341Z,49.20
2019-05-23T08:37:41.415Z,47.70
2019-05-23T08:40:10.376Z,47.30
2019-05-23T08:42:38.781Z,45.10
2019-05-23T08:45:08.226Z,45.00
2019-05-23T08:47:36.741Z,45.00
2019-05-23T08:50:05.146Z,44.90
2019-05-23T08:52:33.004Z,44.40
2019-05-23T08:55:09.227Z,41.40
2019-05-23T08:57:38.147Z,41.70
2019-05-23T09:00:06.840Z,42.50
2019-05-23T09:02:37.845Z,43.00
2019-05-23T09:05:07.710Z,41.40
2019-05-23T09:07:36.078Z,40.40
2019-05-23T09:10:05.696Z,41.60
2019-05-23T09:12:35.369Z,41.00
2019-05-23T09:15:03.779Z,41.50
2019-05-23T09:17:31.805Z,38.60
2019-05-23T09:19:59.970Z,38.70
2019-05-23T09:22:28.672Z,39.70
2019-05-23T09:24:56.747Z,39.00
2019-05-23T09:27:24.604Z,39.20
2019-05-23T09:29:53.122Z,38.10
2019-05-23T09:32:21.035Z,38.30
2019-05-23T09:34:49.048Z,36.50
2019-05-23T09:37:17.645Z,37.60
2019-05-23T09:39:47.245Z,35.90
2019-05-23T09:42:15.345Z,36.30
2019-05-23T09:44:46.222Z,36.00
2019-05-23T09:47:14.189Z,34.60
2019-05-23T09:49:42.192Z,35.50
2019-05-23T09:52:11.120Z,34.60
2019-05-23T09:54:39.308Z,33.70
2019-05-23T09:57:07.466Z,31.70
2019-05-23T09:59:35.433Z,32.50
2019-05-23T10:02:03.638Z,33.30
2019-05-23T10:04:31.667Z,33.50
2019-05-23T10:07:00.330Z,32.30
2019-05-23T10:09:28.516Z,33.70
2019-05-23T10:11:56.573Z,32.10
2019-05-23T10:14:27.790Z,30.00
2019-05-23T10:16:55.803Z,31.40
2019-05-23T10:19:23.798Z,31.50
2019-05-23T10:21:51.780Z,30.90
2019-05-23T10:24:19.940Z,32.60
2019-05-23T10:26:47.785Z,32.20
2019-05-23T10:29:15.639Z,31.50
2019-05-23T10:31:43.570Z,29.90
2019-05-23T10:34:11.512Z,29.60
2019-05-23T10:36:40.463Z,29.80
2019-05-23T10:39:12.000Z,30.00
2019-05-23T10:41:40.269Z,30.00
2019-05-23T10:44:08.973Z,30.20
2019-05-23T10:46:37.175Z,29.00
2019-05-23T10:49:05.661Z,30.70
2019-05-23T10:51:34.217Z,29.30
2019-05-23T10:54:02.512Z,27.50
2019-05-23T10:56:31.366Z,27.40
2019-05-23T10:58:59.421Z,26.70
2019-05-23T11:01:28.075Z,27.30
2019-05-23T11:03:55.950Z,26.40
2019-05-23T11:06:24.333Z,26.80
2019-05-23T11:08:52.743Z,27.20
2019-05-23T11:11:21.286Z,27.60
2019-05-23T11:13:49.503Z,27.90
2019-05-23T11:16:18.265Z,27.60
2019-05-23T11:18:46.184Z,27.10
2019-05-23T11:21:14.265Z,26.00
2019-05-23T11:23:46.982Z,26.50
2019-05-23T11:26:15.228Z,25.70
2019-05-23T11:28:43.215Z,25.80
2019-05-23T11:31:12.814Z,24.60
2019-05-23T11:33:40.811Z,26.30
2019-05-23T11:36:09.336Z,24.60
2019-05-23T11:38:38.099Z,24.60
2019-05-23T11:41:06.192Z,25.20
2019-05-23T11:43:34.461Z,27.20
2019-05-23T11:46:09.660Z,24.50
2019-05-23T11:48:37.670Z,25.40
2019-05-23T11:51:05.780Z,24.70
2019-05-23T11:53:34.132Z,24.40
2019-05-23T11:56:02.211Z,24.40
2019-05-23T11:58:32.709Z,24.30
2019-05-23T12:01:20.944Z,24.50
2019-05-23T12:03:51.133Z,22.90
2019-05-23T12:06:19.687Z,22.40
2019-05-23T12:08:47.569Z,23.20
2019-05-23T12:11:16.217Z,23.10
2019-05-23T12:13:44.118Z,24.40
2019-05-23T12:16:12.372Z,23.40
2019-05-23T12:18:40.685Z,23.60
2019-05-23T12:21:08.807Z,23.10
2019-05-23T12:23:36.904Z,23.70
2019-05-23T12:26:05.262Z,21.90
2019-05-23T12:28:33.235Z,22.20
2019-05-23T12:31:02.967Z,21.20
2019-05-23T12:33:31.049Z,21.00
2019-05-23T12:36:00.003Z,21.70
2019-05-23T12:38:27.874Z,21.40
2019-05-23T12:40:55.803Z,21.70
2019-05-23T12:43:23.667Z,20.50
2019-05-23T12:45:51.583Z,20.30
2019-05-23T12:48:57.504Z,22.20
2019-05-23T12:51:30.860Z,22.00
2019-05-23T12:53:58.968Z,19.60
2019-05-23T12:56:28.149Z,20.10
2019-05-23T12:58:56.580Z,20.00
2019-05-23T13:01:24.411Z,20.50
2019-05-23T13:03:52.390Z,19.70
2019-05-23T13:06:20.269Z,20.00
2019-05-23T13:08:48.113Z,20.90
2019-05-23T13:11:16.077Z,21.20
2019-05-23T13:13:43.978Z,20.60
2019-05-23T13:16:11.926Z,20.90
2019-05-23T13:18:39.931Z,21.70
2019-05-23T13:21:08.006Z,21.80
2019-05-23T13:23:36.498Z,21.70
2019-05-23T13:26:05.344Z,21.60
2019-05-23T13:28:33.348Z,21.70
2019-05-23T13:31:02.336Z,21.80
2019-05-23T13:33:30.507Z,21.90
2019-05-23T13:35:58.390Z,21.70
2019-05-23T13:38:26.250Z,21.00
2019-05-23T13:40:54.159Z,21.20
2019-05-23T13:43:22.250Z,20.90
2019-05-23T13:45:50.224Z,21.60
2019-05-23T13:48:18.330Z,22.30
2019-05-23T13:50:46.559Z,22.00
2019-05-23T13:53:14.833Z,21.90
2019-05-23T13:55:42.846Z,22.50
2019-05-23T13:58:10.735Z,22.40
2019-05-23T14:00:39.308Z,22.60
2019-05-23T14:03:08.417Z,21.80
2019-05-23T14:05:36.319Z,21.20
2019-05-23T14:08:12.373Z,20.90
2019-05-23T14:10:34.162Z,19.90
2019-05-23T14:13:02.151Z,18.10
2019-05-23T14:15:35.657Z,17.60
2019-05-23T14:18:03.942Z,17.40
2019-05-23T14:20:32.103Z,17.40
2019-05-23T14:23:05.318Z,17.80
2019-05-23T14:25:36.196Z,18.30
2019-05-23T14:28:08.092Z,18.50
2019-05-23T14:30:54.374Z,17.90
2019-05-23T14:33:40.771Z,18.30
2019-05-23T14:36:32.062Z,16.90
2019-05-23T14:39:00.467Z,17.20
2019-05-23T14:41:44.651Z,16.80
2019-05-23T14:44:03.667Z,16.40
2019-05-23T14:46:36.984Z,17.20
2019-05-23T14:49:23.164Z,18.00
2019-05-23T14:52:04.840Z,18.60
2019-05-23T14:54:52.351Z,20.30
2019-05-23T14:57:20.409Z,20.40
2019-05-23T14:59:48.593Z,19.90
2019-05-23T15:02:19.966Z,19.60
2019-05-23T15:04:47.901Z,19.70
2019-05-23T15:07:15.858Z,20.20
2019-05-23T15:09:43.852Z,19.50
2019-05-23T15:12:11.788Z,20.00
2019-05-23T15:14:39.825Z,19.30
2019-05-23T15:17:08.001Z,17.80
2019-05-23T15:19:44.184Z,18.40
2019-05-23T15:22:05.829Z,17.20
2019-05-23T15:24:34.816Z,17.90
2019-05-23T15:27:02.829Z,17.60
2019-05-23T15:29:30.898Z,17.10
2019-05-23T15:32:02.502Z,18.10
2019-05-23T15:34:28.968Z,18.00
2019-05-23T15:36:56.878Z,18.40
2019-05-23T15:39:25.006Z,18.90
2019-05-23T15:41:55.955Z,20.20
2019-05-23T15:44:28.675Z,20.00
2019-05-23T15:46:53.737Z,20.80
2019-05-23T15:49:22.130Z,19.90
2019-05-23T15:52:12.924Z,20.40
2019-05-23T15:54:48.622Z,20.00
2019-05-23T15:57:21.255Z,20.90
2019-05-23T16:00:11.593Z,21.00
2019-05-23T16:02:47.001Z,21.80
2019-05-23T16:05:15.915Z,21.70
2019-05-23T16:07:44.092Z,21.90
2019-05-23T16:10:13.259Z,22.10
2019-05-23T16:12:42.592Z,22.70
2019-05-23T16:15:11.031Z,23.20
2019-05-23T16:17:38.906Z,24.40
2019-05-23T16:20:07.030Z,23.30
2019-05-23T16:22:34.906Z,23.10
2019-05-23T16:25:02.929Z,23.00
2019-05-23T16:27:31.143Z,23.10
2019-05-23T16:29:59.338Z,23.30
2019-05-23T16:32:27.526Z,22.80
2019-05-23T16:34:55.488Z,23.30
2019-05-23T16:37:23.378Z,23.80
2019-05-23T16:39:51.384Z,23.30
2019-05-23T16:42:19.871Z,23.00
2019-05-23T16:44:47.927Z,22.40
2019-05-23T16:47:15.853Z,22.00
2019-05-23T16:49:43.871Z,22.10
2019-05-23T16:52:11.991Z,21.90
2019-05-23T16:54:43.402Z,22.80
2019-05-23T16:57:18.564Z,22.30
2019-05-23T16:59:51.863Z,22.20
2019-05-23T17:02:54.596Z,22.30
2019-05-23T17:05:36.996Z,21.80
2019-05-23T17:08:23.711Z,22.60
2019-05-23T17:11:10.164Z,22.40
2019-05-23T17:13:45.543Z,22.50
2019-05-23T17:16:38.368Z,22.30
2019-05-23T17:19:12.146Z,22.20
2019-05-23T17:21:49.843Z,21.80
2019-05-23T17:24:49.802Z,22.30
2019-05-23T17:27:31.155Z,22.50
2019-05-23T17:30:14.635Z,23.40
2019-05-23T17:32:42.465Z,22.70
2019-05-23T17:35:11.702Z,22.70
2019-05-23T17:37:39.971Z,22.90
2019-05-23T17:40:23.568Z,22.80
2019-05-23T17:42:38.462Z,23.10
2019-05-23T17:45:06.846Z,24.00
2019-05-23T17:47:35.542Z,23.50
2019-05-23T17:50:04.489Z,24.90
2019-05-23T17:52:33.631Z,24.40
2019-05-23T17:55:01.898Z,24.50
2019-05-23T17:57:30.505Z,24.80
2019-05-23T17:59:58.439Z,24.60
2019-05-23T18:02:27.346Z,25.00
2019-05-23T18:04:55.254Z,25.30
2019-05-23T18:07:23.374Z,25.90
2019-05-23T18:09:51.796Z,25.80
2019-05-23T18:12:20.610Z,25.40
2019-05-23T18:14:49.668Z,25.40
2019-05-23T18:17:18.090Z,26.20
2019-05-23T18:19:46.055Z,26.30
2019-05-23T18:22:14.249Z,25.40
2019-05-23T18:24:42.171Z,25.40
2019-05-23T18:27:11.760Z,25.90
2019-05-23T18:29:39.644Z,26.00
2019-05-23T18:32:13.414Z,26.40
2019-05-23T18:34:41.553Z,26.50
2019-05-23T18:37:10.131Z,27.00
2019-05-23T18:39:40.433Z,27.80
2019-05-23T18:42:08.386Z,27.60
2019-05-23T18:44:36.666Z,28.00
2019-05-23T18:47:09.663Z,28.50
2019-05-23T18:49:38.162Z,29.10
2019-05-23T18:52:07.355Z,29.30
2019-05-23T18:54:35.528Z,29.70
2019-05-23T18:57:03.471Z,29.60
2019-05-23T18:59:31.543Z,29.70
2019-05-23T19:01:59.487Z,30.00
2019-05-23T19:04:27.456Z,29.70
2019-05-23T19:06:56.343Z,30.20
2019-05-23T19:09:25.883Z,31.00
2019-05-23T19:11:55.251Z,31.50
2019-05-23T19:14:23.979Z,31.60
2019-05-23T19:16:52.628Z,32.20
2019-05-23T19:19:21.533Z,32.00
2019-05-23T19:21:49.989Z,32.20
2019-05-23T19:24:18.203Z,32.70
2019-05-23T19:26:46.717Z,33.50
2019-05-23T19:29:16.669Z,33.60
2019-05-23T19:31:44.714Z,34.80
2019-05-23T19:34:13.650Z,35.10
2019-05-23T19:36:41.803Z,35.80
2019-05-23T19:39:10.045Z,35.90
2019-05-23T19:41:38.641Z,35.40
2019-05-23T19:44:07.405Z,36.10
2019-05-23T19:46:35.886Z,36.80
2019-05-23T19:49:05.226Z,37.20
2019-05-23T19:51:33.618Z,37.50
2019-05-23T19:54:02.065Z,37.80
2019-05-23T19:56:30.447Z,38.50
2019-05-23T19:58:59.161Z,38.30
2019-05-23T20:01:32.253Z,40.00
2019-05-23T20:03:59.714Z,41.30
2019-05-23T20:06:28.587Z,41.30
2019-05-23T20:08:56.942Z,44.70
2019-05-23T20:11:25.785Z,47.10
2019-05-23T20:13:54.032Z,48.80
2019-05-23T20:16:22.117Z,49.70
2019-05-23T20:18:50.432Z,50.60
2019-05-23T20:21:18.892Z,51.50
2019-05-23T20:23:46.939Z,52.50
2019-05-23T20:26:15.085Z,52.20
2019-05-23T20:28:44.378Z,53.30
2019-05-23T20:31:13.240Z,53.50
2019-05-23T20:33:41.495Z,55.70
2019-05-23T20:36:13.135Z,56.80
2019-05-23T20:38:41.845Z,56.70
2019-05-23T20:41:10.093Z,57.00
2019-05-23T20:43:38.149Z,56.60
2019-05-23T20:46:06.259Z,55.80
2019-05-23T20:48:35.546Z,56.00
2019-05-23T20:51:03.785Z,56.70
2019-05-23T20:53:32.148Z,56.50
2019-05-23T20:56:00.008Z,57.40
2019-05-23T20:58:28.048Z,59.20
2019-05-23T21:01:21.471Z,59.80
2019-05-23T21:03:52.181Z,61.10
2019-05-23T21:06:21.546Z,61.10
2019-05-23T21:08:49.678Z,62.00
2019-05-23T21:11:17.719Z,62.00
2019-05-23T21:13:45.661Z,63.00
2019-05-23T21:16:13.734Z,64.20
2019-05-23T21:18:41.800Z,65.10
2019-05-23T21:21:10.067Z,65.00
2019-05-23T21:23:38.097Z,64.70
2019-05-23T21:26:06.244Z,65.00
2019-05-23T21:28:35.790Z,66.30
2019-05-23T21:31:07.584Z,68.50
2019-05-23T21:33:35.630Z,69.70
2019-05-23T21:36:03.712Z,70.10
2019-05-23T21:38:31.815Z,69.70
2019-05-23T21:41:03.375Z,69.80
2019-05-23T21:43:31.413Z,71.00
2019-05-23T21:45:59.446Z,71.20
2019-05-23T21:48:27.466Z,71.60
2019-05-23T21:50:55.485Z,72.80
2019-05-23T21:53:23.506Z,73.20
2019-05-23T21:55:51.581Z,73.00
2019-05-23T21:58:19.532Z,73.70
2019-05-23T22:01:47.533Z,73.90
2019-05-23T22:04:47.209Z,73.50
2019-05-23T22:07:15.292Z,73.50
2019-05-23T22:09:44.463Z,73.90
2019-05-23T22:12:13.807Z,73.80
2019-05-23T22:14:42.002Z,74.10
2019-05-23T22:17:09.922Z,74.20
2019-05-23T22:19:37.891Z,74.50
2019-05-23T22:22:07.424Z,76.00
2019-05-23T22:24:35.272Z,76.90
2019-05-23T22:27:03.368Z,76.70
2019-05-23T22:29:31.501Z,76.70
2019-05-23T22:31:59.405Z,76.50
2019-05-23T22:35:11.015Z,77.70
2019-05-23T22:37:42.361Z,77.50
2019-05-23T22:40:10.984Z,78.30
2019-05-23T22:42:40.315Z,78.20
2019-05-23T22:45:13.802Z,78.30
2019-05-23T22:47:41.680Z,77.60
2019-05-23T22:50:10.632Z,78.40
2019-05-23T22:52:38.553Z,79.30
2019-05-23T22:55:07.436Z,78.00
2019-05-23T22:57:35.740Z,77.40
2019-05-23T23:00:04.326Z,76.70
2019-05-23T23:02:33.461Z,77.90
2019-05-23T23:05:01.466Z,78.40
2019-05-23T23:07:29.572Z,77.50
2019-05-23T23:09:57.887Z,77.20
2019-05-23T23:12:26.475Z,76.90
2019-05-23T23:14:54.394Z,77.50
2019-05-23T23:17:22.472Z,78.80
2019-05-23T23:19:50.476Z,79.20
2019-05-23T23:22:18.481Z,80.60
2019-05-23T23:24:46.354Z,80.60
2019-05-23T23:27:14.220Z,80.60
2019-05-23T23:29:42.035Z,81.00
2019-05-23T23:32:11.265Z,81.60
2019-05-23T23:34:39.197Z,81.90
2019-05-23T23:37:07.156Z,82.40
2019-05-23T23:39:35.087Z,82.60
2019-05-23T23:42:04.197Z,82.60
2019-05-23T23:44:34.392Z,82.80
2019-05-23T23:47:22.810Z,83.20
2019-05-23T23:50:08.724Z,83.90
2019-05-23T23:52:55.114Z,83.40
2019-05-23T23:55:40.886Z,85.00
2019-05-23T23:58:08.480Z,86.20
